sensor_id;sensor_type;location;lat;lon;timestamp;P1;durP1;ratioP1;P2;durP2;ratioP2
15645;SDS011;7922;43.622;1.476;2023-09-07T00:00:19;3.73;;;3.43;;
15645;SDS011;7922;43.622;1.476;2023-09-07T00:02:45;5.23;;;3.37;;
15645;SDS011;7922;43.622;1.476;2023-09-07T00:05:10;3.47;;;3.17;;
15645;SDS011;7922;43.622;1.476;2023-09-07T00:07:36;5.00;;;3.37;;
15645;SDS011;7922;43.622;1.476;2023-09-07T00:10:01;4.20;;;3.27;;
15645;SDS011;7922;43.622;1.476;2023-09-07T00:12:27;4.13;;;3.47;;
15645;SDS011;7922;43.622;1.476;2023-09-07T00:14:55;3.73;;;3.07;;
15645;SDS011;7922;43.622;1.476;2023-09-07T00:17:21;5.00;;;3.53;;
15645;SDS011;7922;43.622;1.476;2023-09-07T00:19:47;3.60;;;3.30;;
15645;SDS011;7922;43.622;1.476;2023-09-07T00:22:12;4.07;;;3.40;;
15645;SDS011;7922;43.622;1.476;2023-09-07T00:24:37;3.73;;;3.40;;
15645;SDS011;7922;43.622;1.476;2023-09-07T00:27:02;3.90;;;3.60;;
15645;SDS011;7922;43.622;1.476;2023-09-07T00:29:28;3.63;;;3.30;;
15645;SDS011;7922;43.622;1.476;2023-09-07T00:31:53;3.50;;;3.20;;
15645;SDS011;7922;43.622;1.476;2023-09-07T00:34:18;5.47;;;3.50;;
15645;SDS011;7922;43.622;1.476;2023-09-07T00:36:44;4.37;;;3.40;;
15645;SDS011;7922;43.622;1.476;2023-09-07T00:39:09;3.40;;;3.10;;
15645;SDS011;7922;43.622;1.476;2023-09-07T00:41:34;3.60;;;3.20;;
15645;SDS011;7922;43.622;1.476;2023-09-07T00:44:00;3.57;;;3.27;;
15645;SDS011;7922;43.622;1.476;2023-09-07T00:46:25;4.03;;;3.60;;
15645;SDS011;7922;43.622;1.476;2023-09-07T00:48:50;4.03;;;3.60;;
15645;SDS011;7922;43.622;1.476;2023-09-07T00:51:16;3.57;;;3.27;;
15645;SDS011;7922;43.622;1.476;2023-09-07T00:53:41;4.13;;;3.73;;
15645;SDS011;7922;43.622;1.476;2023-09-07T00:56:07;4.30;;;3.90;;
15645;SDS011;7922;43.622;1.476;2023-09-07T00:58:34;4.57;;;4.17;;
15645;SDS011;7922;43.622;1.476;2023-09-07T01:00:59;4.53;;;4.00;;
15645;SDS011;7922;43.622;1.476;2023-09-07T01:03:25;4.17;;;3.67;;
15645;SDS011;7922;43.622;1.476;2023-09-07T01:05:51;4.63;;;3.77;;
15645;SDS011;7922;43.622;1.476;2023-09-07T01:08:32;5.77;;;3.80;;
15645;SDS011;7922;43.622;1.476;2023-09-07T01:11:14;3.80;;;3.50;;
15645;SDS011;7922;43.622;1.476;2023-09-07T01:13:39;4.50;;;4.00;;
15645;SDS011;7922;43.622;1.476;2023-09-07T01:16:05;4.80;;;3.77;;
15645;SDS011;7922;43.622;1.476;2023-09-07T01:18:31;4.93;;;4.30;;
15645;SDS011;7922;43.622;1.476;2023-09-07T01:20:57;4.07;;;3.60;;
15645;SDS011;7922;43.622;1.476;2023-09-07T01:23:24;4.20;;;3.60;;
15645;SDS011;7922;43.622;1.476;2023-09-07T01:25:49;4.47;;;3.53;;
15645;SDS011;7922;43.622;1.476;2023-09-07T01:28:16;3.83;;;3.53;;
15645;SDS011;7922;43.622;1.476;2023-09-07T01:30:41;5.60;;;3.87;;
15645;SDS011;7922;43.622;1.476;2023-09-07T01:33:07;5.37;;;4.47;;
15645;SDS011;7922;43.622;1.476;2023-09-07T01:35:32;5.07;;;4.20;;
15645;SDS011;7922;43.622;1.476;2023-09-07T01:37:59;5.13;;;3.50;;
15645;SDS011;7922;43.622;1.476;2023-09-07T01:40:24;4.40;;;3.80;;
15645;SDS011;7922;43.622;1.476;2023-09-07T01:42:49;4.63;;;3.90;;
15645;SDS011;7922;43.622;1.476;2023-09-07T01:45:15;4.60;;;3.77;;
15645;SDS011;7922;43.622;1.476;2023-09-07T01:47:40;4.03;;;3.73;;
15645;SDS011;7922;43.622;1.476;2023-09-07T01:50:05;4.80;;;4.13;;
15645;SDS011;7922;43.622;1.476;2023-09-07T01:52:31;4.47;;;3.70;;
15645;SDS011;7922;43.622;1.476;2023-09-07T01:54:56;4.90;;;3.90;;
15645;SDS011;7922;43.622;1.476;2023-09-07T01:57:21;4.37;;;3.80;;
15645;SDS011;7922;43.622;1.476;2023-09-07T01:59:47;4.70;;;3.80;;
15645;SDS011;7922;43.622;1.476;2023-09-07T02:02:12;7.53;;;4.07;;
15645;SDS011;7922;43.622;1.476;2023-09-07T02:04:37;5.27;;;4.00;;
15645;SDS011;7922;43.622;1.476;2023-09-07T02:07:02;6.90;;;4.20;;
15645;SDS011;7922;43.622;1.476;2023-09-07T02:09:28;5.97;;;4.13;;
15645;SDS011;7922;43.622;1.476;2023-09-07T02:11:53;7.60;;;4.43;;
15645;SDS011;7922;43.622;1.476;2023-09-07T02:14:18;6.70;;;4.20;;
15645;SDS011;7922;43.622;1.476;2023-09-07T02:16:43;5.47;;;4.13;;
15645;SDS011;7922;43.622;1.476;2023-09-07T02:19:09;8.20;;;4.20;;
15645;SDS011;7922;43.622;1.476;2023-09-07T02:21:34;6.73;;;4.60;;
15645;SDS011;7922;43.622;1.476;2023-09-07T02:24:00;4.93;;;3.90;;
15645;SDS011;7922;43.622;1.476;2023-09-07T02:26:25;5.30;;;3.93;;
15645;SDS011;7922;43.622;1.476;2023-09-07T02:28:50;4.40;;;4.00;;
15645;SDS011;7922;43.622;1.476;2023-09-07T02:31:15;5.13;;;3.77;;
15645;SDS011;7922;43.622;1.476;2023-09-07T02:33:41;4.37;;;3.57;;
15645;SDS011;7922;43.622;1.476;2023-09-07T02:36:06;6.17;;;4.33;;
15645;SDS011;7922;43.622;1.476;2023-09-07T02:38:31;4.40;;;4.00;;
15645;SDS011;7922;43.622;1.476;2023-09-07T02:40:56;5.23;;;3.90;;
15645;SDS011;7922;43.622;1.476;2023-09-07T02:43:22;5.80;;;4.10;;
15645;SDS011;7922;43.622;1.476;2023-09-07T02:45:48;4.60;;;3.47;;
15645;SDS011;7922;43.622;1.476;2023-09-07T02:48:14;4.30;;;3.90;;
15645;SDS011;7922;43.622;1.476;2023-09-07T02:50:39;3.83;;;3.53;;
15645;SDS011;7922;43.622;1.476;2023-09-07T02:53:04;3.87;;;3.43;;
15645;SDS011;7922;43.622;1.476;2023-09-07T02:55:29;8.50;;;3.73;;
15645;SDS011;7922;43.622;1.476;2023-09-07T02:57:57;5.37;;;3.63;;
15645;SDS011;7922;43.622;1.476;2023-09-07T03:00:23;4.30;;;3.90;;
15645;SDS011;7922;43.622;1.476;2023-09-07T03:02:48;4.20;;;3.80;;
15645;SDS011;7922;43.622;1.476;2023-09-07T03:05:15;4.47;;;4.07;;
15645;SDS011;7922;43.622;1.476;2023-09-07T03:07:40;3.57;;;3.27;;
15645;SDS011;7922;43.622;1.476;2023-09-07T03:10:06;4.30;;;3.90;;
15645;SDS011;7922;43.622;1.476;2023-09-07T03:12:31;4.30;;;3.90;;
15645;SDS011;7922;43.622;1.476;2023-09-07T03:14:56;5.27;;;3.97;;
15645;SDS011;7922;43.622;1.476;2023-09-07T03:17:22;5.00;;;3.60;;
15645;SDS011;7922;43.622;1.476;2023-09-07T03:19:47;4.83;;;4.00;;
15645;SDS011;7922;43.622;1.476;2023-09-07T03:22:12;4.67;;;3.73;;
15645;SDS011;7922;43.622;1.476;2023-09-07T03:24:38;4.53;;;3.80;;
15645;SDS011;7922;43.622;1.476;2023-09-07T03:27:04;4.27;;;3.87;;
15645;SDS011;7922;43.622;1.476;2023-09-07T03:29:29;4.37;;;3.97;;
15645;SDS011;7922;43.622;1.476;2023-09-07T03:31:55;4.37;;;3.97;;
15645;SDS011;7922;43.622;1.476;2023-09-07T03:34:20;5.43;;;3.70;;
15645;SDS011;7922;43.622;1.476;2023-09-07T03:36:45;4.77;;;4.13;;
15645;SDS011;7922;43.622;1.476;2023-09-07T03:39:11;4.77;;;3.90;;
15645;SDS011;7922;43.622;1.476;2023-09-07T03:41:36;4.30;;;3.80;;
15645;SDS011;7922;43.622;1.476;2023-09-07T03:44:01;3.77;;;3.47;;
15645;SDS011;7922;43.622;1.476;2023-09-07T03:46:27;6.70;;;4.10;;
15645;SDS011;7922;43.622;1.476;2023-09-07T03:48:52;4.23;;;3.80;;
15645;SDS011;7922;43.622;1.476;2023-09-07T03:51:18;3.90;;;3.60;;
15645;SDS011;7922;43.622;1.476;2023-09-07T03:53:43;4.27;;;3.80;;
15645;SDS011;7922;43.622;1.476;2023-09-07T03:56:08;4.33;;;3.73;;
15645;SDS011;7922;43.622;1.476;2023-09-07T03:58:34;5.67;;;3.60;;
15645;SDS011;7922;43.622;1.476;2023-09-07T04:00:59;4.60;;;3.80;;
15645;SDS011;7922;43.622;1.476;2023-09-07T04:03:25;4.93;;;4.40;;
15645;SDS011;7922;43.622;1.476;2023-09-07T04:05:50;6.70;;;4.37;;
15645;SDS011;7922;43.622;1.476;2023-09-07T04:08:16;3.70;;;3.40;;
15645;SDS011;7922;43.622;1.476;2023-09-07T04:10:41;4.17;;;3.60;;
15645;SDS011;7922;43.622;1.476;2023-09-07T04:13:06;4.30;;;3.90;;
15645;SDS011;7922;43.622;1.476;2023-09-07T04:15:33;5.63;;;4.13;;
15645;SDS011;7922;43.622;1.476;2023-09-07T04:17:59;3.83;;;3.53;;
15645;SDS011;7922;43.622;1.476;2023-09-07T04:20:24;4.87;;;3.67;;
15645;SDS011;7922;43.622;1.476;2023-09-07T04:22:49;3.87;;;3.47;;
15645;SDS011;7922;43.622;1.476;2023-09-07T04:25:15;3.93;;;3.60;;
15645;SDS011;7922;43.622;1.476;2023-09-07T04:27:40;4.03;;;3.57;;
15645;SDS011;7922;43.622;1.476;2023-09-07T04:30:05;6.27;;;3.80;;
15645;SDS011;7922;43.622;1.476;2023-09-07T04:32:31;4.27;;;3.90;;
15645;SDS011;7922;43.622;1.476;2023-09-07T04:34:57;5.03;;;3.77;;
15645;SDS011;7922;43.622;1.476;2023-09-07T04:37:22;6.80;;;3.60;;
15645;SDS011;7922;43.622;1.476;2023-09-07T04:39:50;5.07;;;3.47;;
15645;SDS011;7922;43.622;1.476;2023-09-07T04:42:16;4.07;;;3.50;;
15645;SDS011;7922;43.622;1.476;2023-09-07T04:44:41;3.70;;;3.27;;
15645;SDS011;7922;43.622;1.476;2023-09-07T04:47:07;4.23;;;3.63;;
15645;SDS011;7922;43.622;1.476;2023-09-07T04:49:32;5.23;;;3.53;;
15645;SDS011;7922;43.622;1.476;2023-09-07T04:51:57;4.27;;;3.87;;
15645;SDS011;7922;43.622;1.476;2023-09-07T04:54:22;4.37;;;3.50;;
15645;SDS011;7922;43.622;1.476;2023-09-07T04:56:48;6.30;;;3.77;;
15645;SDS011;7922;43.622;1.476;2023-09-07T04:59:13;3.70;;;3.30;;
15645;SDS011;7922;43.622;1.476;2023-09-07T05:01:38;3.80;;;3.40;;
15645;SDS011;7922;43.622;1.476;2023-09-07T05:04:03;3.93;;;3.47;;
15645;SDS011;7922;43.622;1.476;2023-09-07T05:06:29;3.73;;;3.43;;
15645;SDS011;7922;43.622;1.476;2023-09-07T05:08:54;4.20;;;3.60;;
15645;SDS011;7922;43.622;1.476;2023-09-07T05:11:20;4.00;;;3.57;;
15645;SDS011;7922;43.622;1.476;2023-09-07T05:13:45;5.23;;;3.50;;
15645;SDS011;7922;43.622;1.476;2023-09-07T05:16:10;4.77;;;3.83;;
15645;SDS011;7922;43.622;1.476;2023-09-07T05:18:36;4.80;;;3.60;;
15645;SDS011;7922;43.622;1.476;2023-09-07T05:21:01;3.60;;;3.30;;
15645;SDS011;7922;43.622;1.476;2023-09-07T05:23:35;3.73;;;3.43;;
15645;SDS011;7922;43.622;1.476;2023-09-07T05:26:00;3.60;;;3.20;;
15645;SDS011;7922;43.622;1.476;2023-09-07T05:28:25;5.03;;;3.50;;
15645;SDS011;7922;43.622;1.476;2023-09-07T05:30:51;6.70;;;3.40;;
15645;SDS011;7922;43.622;1.476;2023-09-07T05:33:16;3.97;;;3.30;;
15645;SDS011;7922;43.622;1.476;2023-09-07T05:35:42;5.20;;;3.33;;
15645;SDS011;7922;43.622;1.476;2023-09-07T05:38:08;4.07;;;3.67;;
15645;SDS011;7922;43.622;1.476;2023-09-07T05:40:40;4.93;;;3.67;;
15645;SDS011;7922;43.622;1.476;2023-09-07T05:43:07;3.97;;;3.43;;
15645;SDS011;7922;43.622;1.476;2023-09-07T05:45:36;3.93;;;3.30;;
15645;SDS011;7922;43.622;1.476;2023-09-07T05:48:03;4.63;;;3.80;;
15645;SDS011;7922;43.622;1.476;2023-09-07T05:50:29;4.47;;;3.40;;
15645;SDS011;7922;43.622;1.476;2023-09-07T05:52:55;4.13;;;3.67;;
15645;SDS011;7922;43.622;1.476;2023-09-07T05:55:20;5.43;;;3.70;;
15645;SDS011;7922;43.622;1.476;2023-09-07T05:57:45;5.37;;;3.60;;
15645;SDS011;7922;43.622;1.476;2023-09-07T06:00:11;4.00;;;3.50;;
15645;SDS011;7922;43.622;1.476;2023-09-07T06:02:38;4.17;;;3.77;;
15645;SDS011;7922;43.622;1.476;2023-09-07T06:05:04;4.13;;;3.73;;
15645;SDS011;7922;43.622;1.476;2023-09-07T06:07:29;4.63;;;3.80;;
15645;SDS011;7922;43.622;1.476;2023-09-07T06:09:54;3.70;;;3.33;;
15645;SDS011;7922;43.622;1.476;2023-09-07T06:12:20;5.30;;;3.50;;
15645;SDS011;7922;43.622;1.476;2023-09-07T06:14:45;5.27;;;3.70;;
15645;SDS011;7922;43.622;1.476;2023-09-07T06:17:10;4.03;;;3.63;;
15645;SDS011;7922;43.622;1.476;2023-09-07T06:19:36;4.20;;;3.40;;
15645;SDS011;7922;43.622;1.476;2023-09-07T06:22:01;3.67;;;3.37;;
15645;SDS011;7922;43.622;1.476;2023-09-07T06:24:26;4.47;;;3.00;;
15645;SDS011;7922;43.622;1.476;2023-09-07T06:26:51;6.03;;;3.30;;
15645;SDS011;7922;43.622;1.476;2023-09-07T06:29:17;4.37;;;3.23;;
15645;SDS011;7922;43.622;1.476;2023-09-07T06:31:42;3.83;;;3.07;;
15645;SDS011;7922;43.622;1.476;2023-09-07T06:34:07;4.33;;;3.37;;
15645;SDS011;7922;43.622;1.476;2023-09-07T06:36:32;4.93;;;2.93;;
15645;SDS011;7922;43.622;1.476;2023-09-07T06:38:58;4.40;;;3.37;;
15645;SDS011;7922;43.622;1.476;2023-09-07T06:41:23;4.60;;;2.90;;
15645;SDS011;7922;43.622;1.476;2023-09-07T06:43:48;3.40;;;3.10;;
15645;SDS011;7922;43.622;1.476;2023-09-07T06:46:13;4.17;;;3.00;;
15645;SDS011;7922;43.622;1.476;2023-09-07T06:48:39;3.73;;;2.77;;
15645;SDS011;7922;43.622;1.476;2023-09-07T06:51:04;3.20;;;2.90;;
15645;SDS011;7922;43.622;1.476;2023-09-07T06:53:30;2.60;;;2.40;;
15645;SDS011;7922;43.622;1.476;2023-09-07T06:55:59;3.67;;;2.53;;
15645;SDS011;7922;43.622;1.476;2023-09-07T06:58:26;2.93;;;2.63;;
15645;SDS011;7922;43.622;1.476;2023-09-07T07:00:51;3.30;;;2.43;;
15645;SDS011;7922;43.622;1.476;2023-09-07T07:03:16;2.97;;;2.40;;
15645;SDS011;7922;43.622;1.476;2023-09-07T07:05:41;2.80;;;2.40;;
15645;SDS011;7922;43.622;1.476;2023-09-07T07:08:07;3.20;;;2.80;;
15645;SDS011;7922;43.622;1.476;2023-09-07T07:10:32;3.20;;;2.90;;
15645;SDS011;7922;43.622;1.476;2023-09-07T07:12:58;3.07;;;2.73;;
15645;SDS011;7922;43.622;1.476;2023-09-07T07:15:23;2.53;;;2.33;;
15645;SDS011;7922;43.622;1.476;2023-09-07T07:17:48;4.30;;;2.87;;
15645;SDS011;7922;43.622;1.476;2023-09-07T07:20:13;2.80;;;2.60;;
15645;SDS011;7922;43.622;1.476;2023-09-07T07:22:39;3.30;;;2.93;;
15645;SDS011;7922;43.622;1.476;2023-09-07T07:25:04;3.13;;;2.83;;
15645;SDS011;7922;43.622;1.476;2023-09-07T07:27:29;3.07;;;2.70;;
15645;SDS011;7922;43.622;1.476;2023-09-07T07:29:55;3.10;;;2.40;;
15645;SDS011;7922;43.622;1.476;2023-09-07T07:32:20;2.83;;;2.53;;
15645;SDS011;7922;43.622;1.476;2023-09-07T07:34:45;3.83;;;2.67;;
15645;SDS011;7922;43.622;1.476;2023-09-07T07:37:11;3.10;;;2.67;;
15645;SDS011;7922;43.622;1.476;2023-09-07T07:39:36;3.20;;;2.90;;
15645;SDS011;7922;43.622;1.476;2023-09-07T07:42:01;2.80;;;2.37;;
15645;SDS011;7922;43.622;1.476;2023-09-07T07:44:27;2.80;;;2.60;;
15645;SDS011;7922;43.622;1.476;2023-09-07T07:46:52;3.00;;;2.70;;
15645;SDS011;7922;43.622;1.476;2023-09-07T07:49:17;4.50;;;2.70;;
15645;SDS011;7922;43.622;1.476;2023-09-07T07:51:43;2.10;;;1.90;;
15645;SDS011;7922;43.622;1.476;2023-09-07T07:54:08;3.10;;;2.80;;
15645;SDS011;7922;43.622;1.476;2023-09-07T07:56:33;4.07;;;2.70;;
15645;SDS011;7922;43.622;1.476;2023-09-07T07:58:58;3.37;;;2.20;;
15645;SDS011;7922;43.622;1.476;2023-09-07T08:01:24;2.73;;;2.53;;
15645;SDS011;7922;43.622;1.476;2023-09-07T08:03:49;3.20;;;2.47;;
15645;SDS011;7922;43.622;1.476;2023-09-07T08:06:14;4.13;;;2.40;;
15645;SDS011;7922;43.622;1.476;2023-09-07T08:08:40;2.23;;;2.03;;
15645;SDS011;7922;43.622;1.476;2023-09-07T08:11:05;2.27;;;2.07;;
15645;SDS011;7922;43.622;1.476;2023-09-07T08:13:30;3.10;;;2.33;;
15645;SDS011;7922;43.622;1.476;2023-09-07T08:15:56;2.50;;;2.30;;
15645;SDS011;7922;43.622;1.476;2023-09-07T08:18:21;2.90;;;2.23;;
15645;SDS011;7922;43.622;1.476;2023-09-07T08:20:46;3.13;;;2.67;;
15645;SDS011;7922;43.622;1.476;2023-09-07T08:23:12;3.40;;;2.10;;
15645;SDS011;7922;43.622;1.476;2023-09-07T08:25:37;3.63;;;2.33;;
15645;SDS011;7922;43.622;1.476;2023-09-07T08:28:02;2.23;;;1.90;;
15645;SDS011;7922;43.622;1.476;2023-09-07T08:30:27;2.30;;;2.10;;
15645;SDS011;7922;43.622;1.476;2023-09-07T08:32:53;2.27;;;2.13;;
15645;SDS011;7922;43.622;1.476;2023-09-07T08:35:18;3.03;;;2.07;;
15645;SDS011;7922;43.622;1.476;2023-09-07T08:37:43;2.87;;;2.10;;
15645;SDS011;7922;43.622;1.476;2023-09-07T08:40:09;3.37;;;2.60;;
15645;SDS011;7922;43.622;1.476;2023-09-07T08:42:38;2.40;;;2.20;;
15645;SDS011;7922;43.622;1.476;2023-09-07T08:45:04;2.40;;;2.20;;
15645;SDS011;7922;43.622;1.476;2023-09-07T08:47:30;2.97;;;2.10;;
15645;SDS011;7922;43.622;1.476;2023-09-07T08:49:56;3.17;;;2.60;;
15645;SDS011;7922;43.622;1.476;2023-09-07T08:52:22;2.23;;;2.00;;
15645;SDS011;7922;43.622;1.476;2023-09-07T08:54:48;2.23;;;2.03;;
15645;SDS011;7922;43.622;1.476;2023-09-07T08:57:13;2.30;;;2.20;;
15645;SDS011;7922;43.622;1.476;2023-09-07T08:59:39;3.10;;;2.00;;
15645;SDS011;7922;43.622;1.476;2023-09-07T09:02:07;2.33;;;2.13;;
15645;SDS011;7922;43.622;1.476;2023-09-07T09:04:34;2.80;;;2.07;;
15645;SDS011;7922;43.622;1.476;2023-09-07T09:07:02;4.50;;;2.30;;
15645;SDS011;7922;43.622;1.476;2023-09-07T09:09:28;2.67;;;1.83;;
15645;SDS011;7922;43.622;1.476;2023-09-07T09:11:53;3.63;;;2.37;;
15645;SDS011;7922;43.622;1.476;2023-09-07T09:14:18;2.10;;;1.90;;
15645;SDS011;7922;43.622;1.476;2023-09-07T09:16:48;2.80;;;2.33;;
15645;SDS011;7922;43.622;1.476;2023-09-07T09:19:14;2.87;;;2.20;;
15645;SDS011;7922;43.622;1.476;2023-09-07T09:21:39;3.67;;;1.97;;
15645;SDS011;7922;43.622;1.476;2023-09-07T09:24:09;4.17;;;2.00;;
15645;SDS011;7922;43.622;1.476;2023-09-07T09:26:36;2.20;;;2.00;;
15645;SDS011;7922;43.622;1.476;2023-09-07T09:29:02;2.13;;;2.00;;
15645;SDS011;7922;43.622;1.476;2023-09-07T09:31:27;2.23;;;2.03;;
15645;SDS011;7922;43.622;1.476;2023-09-07T09:33:54;8.63;;;2.30;;
15645;SDS011;7922;43.622;1.476;2023-09-07T09:36:21;2.63;;;2.20;;
15645;SDS011;7922;43.622;1.476;2023-09-07T09:38:50;2.25;;;2.03;;
15645;SDS011;7922;43.622;1.476;2023-09-07T09:41:17;3.90;;;2.10;;
15645;SDS011;7922;43.622;1.476;2023-09-07T09:43:42;2.67;;;2.17;;
15645;SDS011;7922;43.622;1.476;2023-09-07T09:46:08;2.88;;;1.92;;
15645;SDS011;7922;43.622;1.476;2023-09-07T09:48:34;3.73;;;2.20;;
15645;SDS011;7922;43.622;1.476;2023-09-07T09:51:06;4.27;;;2.20;;
15645;SDS011;7922;43.622;1.476;2023-09-07T09:53:32;3.83;;;2.43;;
15645;SDS011;7922;43.622;1.476;2023-09-07T09:55:58;5.10;;;2.00;;
15645;SDS011;7922;43.622;1.476;2023-09-07T09:58:23;2.72;;;2.22;;
15645;SDS011;7922;43.622;1.476;2023-09-07T10:00:53;4.78;;;2.35;;
15645;SDS011;7922;43.622;1.476;2023-09-07T10:03:23;3.00;;;2.45;;
15645;SDS011;7922;43.622;1.476;2023-09-07T10:05:52;4.93;;;2.30;;
15645;SDS011;7922;43.622;1.476;2023-09-07T10:08:18;3.28;;;2.40;;
15645;SDS011;7922;43.622;1.476;2023-09-07T10:10:46;2.45;;;1.90;;
15645;SDS011;7922;43.622;1.476;2023-09-07T10:13:16;3.78;;;2.30;;
15645;SDS011;7922;43.622;1.476;2023-09-07T10:15:59;2.72;;;2.22;;
15645;SDS011;7922;43.622;1.476;2023-09-07T10:18:32;3.38;;;2.10;;
15645;SDS011;7922;43.622;1.476;2023-09-07T10:20:59;2.85;;;2.10;;
15645;SDS011;7922;43.622;1.476;2023-09-07T10:26:05;2.70;;;2.50;;
15645;SDS011;7922;43.622;1.476;2023-09-07T10:28:36;5.10;;;2.50;;
15645;SDS011;7922;43.622;1.476;2023-09-07T10:31:04;5.38;;;2.60;;
15645;SDS011;7922;43.622;1.476;2023-09-07T10:33:32;3.60;;;2.38;;
15645;SDS011;7922;43.622;1.476;2023-09-07T10:35:58;3.55;;;2.50;;
15645;SDS011;7922;43.622;1.476;2023-09-07T10:38:24;3.40;;;2.63;;
15645;SDS011;7922;43.622;1.476;2023-09-07T10:40:54;2.70;;;2.45;;
15645;SDS011;7922;43.622;1.476;2023-09-07T10:43:20;2.55;;;2.00;;
15645;SDS011;7922;43.622;1.476;2023-09-07T10:45:46;2.47;;;2.10;;
15645;SDS011;7922;43.622;1.476;2023-09-07T10:48:11;3.75;;;2.15;;
15645;SDS011;7922;43.622;1.476;2023-09-07T10:50:43;2.47;;;2.15;;
15645;SDS011;7922;43.622;1.476;2023-09-07T10:53:11;2.88;;;2.50;;
15645;SDS011;7922;43.622;1.476;2023-09-07T10:55:37;4.35;;;2.47;;
15645;SDS011;7922;43.622;1.476;2023-09-07T10:58:03;3.55;;;2.58;;
15645;SDS011;7922;43.622;1.476;2023-09-07T11:00:28;3.38;;;1.92;;
15645;SDS011;7922;43.622;1.476;2023-09-07T11:02:54;3.50;;;2.63;;
15645;SDS011;7922;43.622;1.476;2023-09-07T11:05:19;6.55;;;2.75;;
15645;SDS011;7922;43.622;1.476;2023-09-07T11:07:45;3.97;;;2.65;;
15645;SDS011;7922;43.622;1.476;2023-09-07T11:10:10;4.22;;;2.28;;
15645;SDS011;7922;43.622;1.476;2023-09-07T11:12:36;6.97;;;2.50;;
15645;SDS011;7922;43.622;1.476;2023-09-07T11:15:07;3.55;;;2.40;;
15645;SDS011;7922;43.622;1.476;2023-09-07T11:17:34;2.85;;;2.50;;
15645;SDS011;7922;43.622;1.476;2023-09-07T11:20:03;4.32;;;2.38;;
15645;SDS011;7922;43.622;1.476;2023-09-07T11:22:29;6.50;;;2.60;;
15645;SDS011;7922;43.622;1.476;2023-09-07T11:24:55;5.68;;;2.58;;
15645;SDS011;7922;43.622;1.476;2023-09-07T11:27:20;3.83;;;2.40;;
15645;SDS011;7922;43.622;1.476;2023-09-07T11:29:50;4.68;;;2.92;;
15645;SDS011;7922;43.622;1.476;2023-09-07T11:32:16;7.80;;;2.90;;
15645;SDS011;7922;43.622;1.476;2023-09-07T11:34:48;6.95;;;3.10;;
15645;SDS011;7922;43.622;1.476;2023-09-07T11:37:17;4.32;;;2.50;;
15645;SDS011;7922;43.622;1.476;2023-09-07T11:39:43;5.78;;;2.85;;
15645;SDS011;7922;43.622;1.476;2023-09-07T11:42:09;3.05;;;2.72;;
15645;SDS011;7922;43.622;1.476;2023-09-07T11:44:34;4.32;;;2.70;;
15645;SDS011;7922;43.622;1.476;2023-09-07T11:46:59;3.53;;;2.55;;
15645;SDS011;7922;43.622;1.476;2023-09-07T11:49:25;3.95;;;2.60;;
15645;SDS011;7922;43.622;1.476;2023-09-07T11:51:50;4.53;;;2.67;;
15645;SDS011;7922;43.622;1.476;2023-09-07T11:54:15;4.22;;;2.92;;
15645;SDS011;7922;43.622;1.476;2023-09-07T11:56:40;4.05;;;2.85;;
15645;SDS011;7922;43.622;1.476;2023-09-07T11:59:06;4.18;;;2.80;;
15645;SDS011;7922;43.622;1.476;2023-09-07T12:01:31;4.75;;;2.70;;
15645;SDS011;7922;43.622;1.476;2023-09-07T12:03:57;3.88;;;2.55;;
15645;SDS011;7922;43.622;1.476;2023-09-07T12:06:22;5.68;;;2.67;;
15645;SDS011;7922;43.622;1.476;2023-09-07T12:09:00;3.00;;;2.60;;
15645;SDS011;7922;43.622;1.476;2023-09-07T12:11:26;6.13;;;2.70;;
15645;SDS011;7922;43.622;1.476;2023-09-07T12:13:52;5.10;;;2.80;;
15645;SDS011;7922;43.622;1.476;2023-09-07T12:16:20;4.28;;;2.58;;
15645;SDS011;7922;43.622;1.476;2023-09-07T12:18:45;5.60;;;2.97;;
15645;SDS011;7922;43.622;1.476;2023-09-07T12:21:10;5.45;;;2.60;;
15645;SDS011;7922;43.622;1.476;2023-09-07T12:23:36;4.45;;;2.47;;
15645;SDS011;7922;43.622;1.476;2023-09-07T12:26:01;3.95;;;2.90;;
15645;SDS011;7922;43.622;1.476;2023-09-07T12:28:27;6.22;;;2.75;;
15645;SDS011;7922;43.622;1.476;2023-09-07T12:30:52;4.43;;;2.75;;
15645;SDS011;7922;43.622;1.476;2023-09-07T12:33:17;7.15;;;2.90;;
15645;SDS011;7922;43.622;1.476;2023-09-07T12:35:43;2.97;;;2.47;;
15645;SDS011;7922;43.622;1.476;2023-09-07T12:38:08;3.15;;;2.65;;
15645;SDS011;7922;43.622;1.476;2023-09-07T12:40:33;5.78;;;2.65;;
15645;SDS011;7922;43.622;1.476;2023-09-07T12:42:58;6.38;;;3.10;;
15645;SDS011;7922;43.622;1.476;2023-09-07T12:45:24;3.88;;;2.58;;
15645;SDS011;7922;43.622;1.476;2023-09-07T12:47:49;3.65;;;2.63;;
15645;SDS011;7922;43.622;1.476;2023-09-07T12:50:15;4.10;;;2.17;;
15645;SDS011;7922;43.622;1.476;2023-09-07T12:52:40;4.43;;;2.47;;
15645;SDS011;7922;43.622;1.476;2023-09-07T12:55:06;5.68;;;2.83;;
15645;SDS011;7922;43.622;1.476;2023-09-07T12:57:32;3.55;;;2.42;;
15645;SDS011;7922;43.622;1.476;2023-09-07T12:59:57;5.75;;;2.47;;
15645;SDS011;7922;43.622;1.476;2023-09-07T13:02:22;4.97;;;2.50;;
15645;SDS011;7922;43.622;1.476;2023-09-07T13:04:48;3.83;;;2.50;;
15645;SDS011;7922;43.622;1.476;2023-09-07T13:07:13;6.25;;;2.70;;
15645;SDS011;7922;43.622;1.476;2023-09-07T13:09:38;2.70;;;2.30;;
15645;SDS011;7922;43.622;1.476;2023-09-07T13:12:04;5.85;;;2.70;;
15645;SDS011;7922;43.622;1.476;2023-09-07T13:14:29;5.30;;;2.55;;
15645;SDS011;7922;43.622;1.476;2023-09-07T13:16:55;3.08;;;2.65;;
15645;SDS011;7922;43.622;1.476;2023-09-07T13:19:20;3.63;;;2.22;;
15645;SDS011;7922;43.622;1.476;2023-09-07T13:21:45;4.03;;;2.60;;
15645;SDS011;7922;43.622;1.476;2023-09-07T13:24:11;7.00;;;3.03;;
15645;SDS011;7922;43.622;1.476;2023-09-07T13:26:36;4.57;;;2.72;;
15645;SDS011;7922;43.622;1.476;2023-09-07T13:29:02;5.40;;;2.80;;
15645;SDS011;7922;43.622;1.476;2023-09-07T13:31:27;3.55;;;2.30;;
15645;SDS011;7922;43.622;1.476;2023-09-07T13:33:52;4.22;;;2.65;;
15645;SDS011;7922;43.622;1.476;2023-09-07T13:36:18;5.10;;;2.47;;
15645;SDS011;7922;43.622;1.476;2023-09-07T13:38:43;5.13;;;2.50;;
15645;SDS011;7922;43.622;1.476;2023-09-07T13:41:08;6.30;;;2.47;;
15645;SDS011;7922;43.622;1.476;2023-09-07T13:43:34;6.65;;;2.85;;
15645;SDS011;7922;43.622;1.476;2023-09-07T13:45:59;3.35;;;2.40;;
15645;SDS011;7922;43.622;1.476;2023-09-07T13:48:25;5.13;;;2.72;;
15645;SDS011;7922;43.622;1.476;2023-09-07T13:50:50;4.25;;;2.60;;
15645;SDS011;7922;43.622;1.476;2023-09-07T13:53:15;4.38;;;2.67;;
15645;SDS011;7922;43.622;1.476;2023-09-07T13:55:40;5.40;;;2.58;;
15645;SDS011;7922;43.622;1.476;2023-09-07T13:58:06;7.03;;;2.40;;
15645;SDS011;7922;43.622;1.476;2023-09-07T14:00:31;6.63;;;2.63;;
15645;SDS011;7922;43.622;1.476;2023-09-07T14:02:56;5.05;;;2.38;;
15645;SDS011;7922;43.622;1.476;2023-09-07T14:05:22;4.85;;;2.88;;
15645;SDS011;7922;43.622;1.476;2023-09-07T14:07:47;4.28;;;2.53;;
15645;SDS011;7922;43.622;1.476;2023-09-07T14:10:15;5.18;;;2.58;;
15645;SDS011;7922;43.622;1.476;2023-09-07T14:12:40;3.88;;;2.03;;
15645;SDS011;7922;43.622;1.476;2023-09-07T14:15:06;6.25;;;2.60;;
15645;SDS011;7922;43.622;1.476;2023-09-07T14:17:32;4.38;;;2.33;;
15645;SDS011;7922;43.622;1.476;2023-09-07T14:19:57;3.88;;;2.40;;
15645;SDS011;7922;43.622;1.476;2023-09-07T14:22:22;3.78;;;2.45;;
15645;SDS011;7922;43.622;1.476;2023-09-07T14:24:48;5.40;;;2.58;;
15645;SDS011;7922;43.622;1.476;2023-09-07T14:27:13;3.50;;;2.70;;
15645;SDS011;7922;43.622;1.476;2023-09-07T14:29:38;4.22;;;2.53;;
15645;SDS011;7922;43.622;1.476;2023-09-07T14:32:04;5.78;;;2.63;;
15645;SDS011;7922;43.622;1.476;2023-09-07T14:34:29;4.80;;;2.50;;
15645;SDS011;7922;43.622;1.476;2023-09-07T14:36:55;5.03;;;2.38;;
15645;SDS011;7922;43.622;1.476;2023-09-07T14:39:20;3.92;;;2.50;;
15645;SDS011;7922;43.622;1.476;2023-09-07T14:41:45;5.38;;;2.50;;
15645;SDS011;7922;43.622;1.476;2023-09-07T14:44:11;3.95;;;2.58;;
15645;SDS011;7922;43.622;1.476;2023-09-07T14:46:36;3.38;;;2.47;;
15645;SDS011;7922;43.622;1.476;2023-09-07T14:49:01;3.72;;;2.72;;
15645;SDS011;7922;43.622;1.476;2023-09-07T14:51:27;2.72;;;2.15;;
15645;SDS011;7922;43.622;1.476;2023-09-07T14:53:52;4.82;;;2.38;;